sensor_id;sensor_type;location;lat;lon;timestamp;pressure;altitude;pressure_sealevel;temperature;humidity
10587;BME280;5341;47.606;7.576;2024-03-22T00:01:05;99535.34;;;17.33;54.65
10587;BME280;5341;47.606;7.576;2024-03-22T00:03:32;99528.47;;;17.30;54.57
10587;BME280;5341;47.606;7.576;2024-03-22T00:05:59;99528.69;;;17.28;54.60
10587;BME280;5341;47.606;7.576;2024-03-22T00:08:26;99534.50;;;17.25;54.41
10587;BME280;5341;47.606;7.576;2024-03-22T00:10:52;99541.16;;;17.23;54.45
10587;BME280;5341;47.606;7.576;2024-03-22T00:13:19;99530.75;;;17.20;54.44
10587;BME280;5341;47.606;7.576;2024-03-22T00:15:46;99536.34;;;17.18;54.86
10587;BME280;5341;47.606;7.576;2024-03-22T00:18:15;99532.00;;;17.17;54.79
10587;BME280;5341;47.606;7.576;2024-03-22T00:20:41;99534.28;;;17.14;54.59
10587;BME280;5341;47.606;7.576;2024-03-22T00:23:09;99531.78;;;17.12;54.81
10587;BME280;5341;47.606;7.576;2024-03-22T00:25:36;99533.03;;;17.10;54.76
10587;BME280;5341;47.606;7.576;2024-03-22T00:28:04;99536.78;;;17.09;54.60
10587;BME280;5341;47.606;7.576;2024-03-22T00:30:30;99534.47;;;17.06;54.64
10587;BME280;5341;47.606;7.576;2024-03-22T00:32:57;99535.72;;;17.03;54.90
10587;BME280;5341;47.606;7.576;2024-03-22T00:35:25;99527.81;;;17.02;54.70
10587;BME280;5341;47.606;7.576;2024-03-22T00:37:52;99515.56;;;16.99;54.59
10587;BME280;5341;47.606;7.576;2024-03-22T00:40:18;99516.81;;;16.96;54.75
10587;BME280;5341;47.606;7.576;2024-03-22T00:42:46;99512.63;;;16.94;54.76
10587;BME280;5341;47.606;7.576;2024-03-22T00:45:12;99521.75;;;16.93;54.81
10587;BME280;5341;47.606;7.576;2024-03-22T00:47:40;99526.53;;;16.91;54.75
10587;BME280;5341;47.606;7.576;2024-03-22T00:50:07;99526.13;;;16.87;54.84
10587;BME280;5341;47.606;7.576;2024-03-22T00:52:35;99524.47;;;16.86;54.88
10587;BME280;5341;47.606;7.576;2024-03-22T00:55:02;99530.25;;;16.83;55.02
10587;BME280;5341;47.606;7.576;2024-03-22T00:57:29;99524.00;;;16.83;54.97
10587;BME280;5341;47.606;7.576;2024-03-22T00:59:55;99520.69;;;16.81;54.68
10587;BME280;5341;47.606;7.576;2024-03-22T01:02:23;99511.13;;;16.78;54.97
10587;BME280;5341;47.606;7.576;2024-03-22T01:04:49;99511.34;;;16.77;55.05
10587;BME280;5341;47.606;7.576;2024-03-22T01:07:16;99513.41;;;16.75;55.07
10587;BME280;5341;47.606;7.576;2024-03-22T01:09:44;99512.78;;;16.73;54.77
10587;BME280;5341;47.606;7.576;2024-03-22T01:12:11;99504.25;;;16.69;55.11
10587;BME280;5341;47.606;7.576;2024-03-22T01:14:37;99503.59;;;16.67;54.91
10587;BME280;5341;47.606;7.576;2024-03-22T01:17:04;99503.78;;;16.65;54.89
10587;BME280;5341;47.606;7.576;2024-03-22T01:19:31;99502.34;;;16.63;55.05
10587;BME280;5341;47.606;7.576;2024-03-22T01:21:58;99507.13;;;16.61;55.03
10587;BME280;5341;47.606;7.576;2024-03-22T01:24:24;99503.75;;;16.59;54.85
10587;BME280;5341;47.606;7.576;2024-03-22T01:26:53;99501.47;;;16.56;55.00
10587;BME280;5341;47.606;7.576;2024-03-22T01:29:19;99508.13;;;16.53;55.19
10587;BME280;5341;47.606;7.576;2024-03-22T01:31:47;99501.06;;;16.52;54.91
10587;BME280;5341;47.606;7.576;2024-03-22T01:34:14;99503.34;;;16.49;54.94
10587;BME280;5341;47.606;7.576;2024-03-22T01:36:41;99503.50;;;16.47;55.08
10587;BME280;5341;47.606;7.576;2024-03-22T01:39:07;99509.13;;;16.46;55.33
10587;BME280;5341;47.606;7.576;2024-03-22T01:41:35;99495.00;;;16.44;55.16
10587;BME280;5341;47.606;7.576;2024-03-22T01:44:03;99497.06;;;16.41;55.28
10587;BME280;5341;47.606;7.576;2024-03-22T01:46:30;99494.38;;;16.41;54.88
10587;BME280;5341;47.606;7.576;2024-03-22T01:48:56;99491.88;;;16.40;54.96
10587;BME280;5341;47.606;7.576;2024-03-22T01:51:24;99485.84;;;16.38;55.24
10587;BME280;5341;47.606;7.576;2024-03-22T01:53:51;99486.06;;;16.36;55.06
10587;BME280;5341;47.606;7.576;2024-03-22T01:56:19;99497.88;;;16.35;55.04
10587;BME280;5341;47.606;7.576;2024-03-22T01:58:47;99490.78;;;16.34;54.72
10587;BME280;5341;47.606;7.576;2024-03-22T02:01:16;99482.91;;;16.33;54.88
10587;BME280;5341;47.606;7.576;2024-03-22T02:03:42;99482.28;;;16.31;54.79
10587;BME280;5341;47.606;7.576;2024-03-22T02:06:09;99468.16;;;16.29;54.99
10587;BME280;5341;47.606;7.576;2024-03-22T02:08:36;99470.03;;;16.28;55.06
10587;BME280;5341;47.606;7.576;2024-03-22T02:11:03;99468.34;;;16.27;55.05
10587;BME280;5341;47.606;7.576;2024-03-22T02:13:30;99467.72;;;16.25;54.88
10587;BME280;5341;47.606;7.576;2024-03-22T02:15:57;99454.63;;;16.22;54.90
10587;BME280;5341;47.606;7.576;2024-03-22T02:18:25;99456.47;;;16.22;55.06
10587;BME280;5341;47.606;7.576;2024-03-22T02:20:52;99459.38;;;16.20;55.09
10587;BME280;5341;47.606;7.576;2024-03-22T02:23:32;99443.41;;;16.19;55.31
10587;BME280;5341;47.606;7.576;2024-03-22T02:26:00;99438.22;;;16.17;54.99
10587;BME280;5341;47.606;7.576;2024-03-22T02:28:26;99433.03;;;16.16;55.18
10587;BME280;5341;47.606;7.576;2024-03-22T02:30:53;99430.31;;;16.16;55.05
10587;BME280;5341;47.606;7.576;2024-03-22T02:33:20;99426.78;;;16.15;55.29
10587;BME280;5341;47.606;7.576;2024-03-22T02:35:47;99425.13;;;16.14;54.89
10587;BME280;5341;47.606;7.576;2024-03-22T02:38:13;99422.63;;;16.13;55.01
10587;BME280;5341;47.606;7.576;2024-03-22T02:40:43;99418.28;;;16.11;55.17
10587;BME280;5341;47.606;7.576;2024-03-22T02:43:09;99413.88;;;16.10;55.01
10587;BME280;5341;47.606;7.576;2024-03-22T02:45:37;99405.16;;;16.08;55.00
10587;BME280;5341;47.606;7.576;2024-03-22T02:48:04;99406.19;;;16.07;55.24
10587;BME280;5341;47.606;7.576;2024-03-22T02:50:33;99400.81;;;16.07;55.01
10587;BME280;5341;47.606;7.576;2024-03-22T02:52:59;99402.66;;;16.07;55.11
10587;BME280;5341;47.606;7.576;2024-03-22T02:55:26;99402.03;;;16.05;55.27
10587;BME280;5341;47.606;7.576;2024-03-22T02:57:56;99404.75;;;16.05;55.28
10587;BME280;5341;47.606;7.576;2024-03-22T03:00:23;99409.31;;;16.04;55.30
10587;BME280;5341;47.606;7.576;2024-03-22T03:02:50;99404.94;;;16.03;55.10
10587;BME280;5341;47.606;7.576;2024-03-22T03:05:17;99405.78;;;16.04;55.20
10587;BME280;5341;47.606;7.576;2024-03-22T03:07:43;99398.72;;;16.03;55.25
10587;BME280;5341;47.606;7.576;2024-03-22T03:10:13;99388.97;;;16.02;55.13
10587;BME280;5341;47.606;7.576;2024-03-22T03:12:39;99387.09;;;16.02;55.31
10587;BME280;5341;47.606;7.576;2024-03-22T03:15:08;99392.69;;;16.01;55.26
10587;BME280;5341;47.606;7.576;2024-03-22T03:17:34;99389.19;;;16.00;55.13
10587;BME280;5341;47.606;7.576;2024-03-22T03:20:02;99391.03;;;16.00;55.28
10587;BME280;5341;47.606;7.576;2024-03-22T03:22:31;99381.47;;;15.97;55.41
10587;BME280;5341;47.606;7.576;2024-03-22T03:24:58;99381.66;;;15.96;55.31
10587;BME280;5341;47.606;7.576;2024-03-22T03:27:24;99380.84;;;15.95;55.19
10587;BME280;5341;47.606;7.576;2024-03-22T03:29:51;99371.91;;;15.95;55.35
10587;BME280;5341;47.606;7.576;2024-03-22T03:32:19;99374.81;;;15.93;55.28
10587;BME280;5341;47.606;7.576;2024-03-22T03:34:46;99373.97;;;15.93;55.30
10587;BME280;5341;47.606;7.576;2024-03-22T03:37:12;99368.78;;;15.91;55.32
10587;BME280;5341;47.606;7.576;2024-03-22T03:39:40;99376.88;;;15.91;55.25
10587;BME280;5341;47.606;7.576;2024-03-22T03:42:06;99368.16;;;15.89;55.51
10587;BME280;5341;47.606;7.576;2024-03-22T03:44:34;99366.31;;;15.90;55.20
10587;BME280;5341;47.606;7.576;2024-03-22T03:47:01;99360.06;;;15.89;55.38
10587;BME280;5341;47.606;7.576;2024-03-22T03:49:30;99359.25;;;15.89;55.34
10587;BME280;5341;47.606;7.576;2024-03-22T03:51:56;99352.19;;;15.88;55.14
10587;BME280;5341;47.606;7.576;2024-03-22T03:54:23;99355.91;;;15.87;55.43
10587;BME280;5341;47.606;7.576;2024-03-22T03:56:49;99355.91;;;15.87;55.19
10587;BME280;5341;47.606;7.576;2024-03-22T03:59:17;99355.06;;;15.86;55.26
10587;BME280;5341;47.606;7.576;2024-03-22T04:01:43;99355.06;;;15.86;55.31
10587;BME280;5341;47.606;7.576;2024-03-22T04:04:10;99347.19;;;15.85;55.24
10587;BME280;5341;47.606;7.576;2024-03-22T04:06:38;99351.53;;;15.86;55.25
10587;BME280;5341;47.606;7.576;2024-03-22T04:09:05;99347.19;;;15.85;55.18
10587;BME280;5341;47.606;7.576;2024-03-22T04:11:32;99348.22;;;15.83;55.52
10587;BME280;5341;47.606;7.576;2024-03-22T04:13:59;99351.75;;;15.84;55.39
10587;BME280;5341;47.606;7.576;2024-03-22T04:16:25;99349.25;;;15.82;55.23
10587;BME280;5341;47.606;7.576;2024-03-22T04:18:53;99350.28;;;15.81;55.34
10587;BME280;5341;47.606;7.576;2024-03-22T04:21:19;99340.53;;;15.80;55.31
10587;BME280;5341;47.606;7.576;2024-03-22T04:23:48;99333.47;;;15.79;55.18
10587;BME280;5341;47.606;7.576;2024-03-22T04:26:15;99332.66;;;15.79;55.42
10587;BME280;5341;47.606;7.576;2024-03-22T04:28:42;99336.38;;;15.78;55.15
10587;BME280;5341;47.606;7.576;2024-03-22T04:31:09;99338.25;;;15.77;55.61
10587;BME280;5341;47.606;7.576;2024-03-22T04:33:37;99325.81;;;15.76;55.30
10587;BME280;5341;47.606;7.576;2024-03-22T04:36:04;99330.38;;;15.76;55.32
10587;BME280;5341;47.606;7.576;2024-03-22T04:38:32;99327.66;;;15.76;55.69
10587;BME280;5341;47.606;7.576;2024-03-22T04:41:00;99329.31;;;15.77;55.54
10587;BME280;5341;47.606;7.576;2024-03-22T04:43:28;99328.50;;;15.76;55.57
10587;BME280;5341;47.606;7.576;2024-03-22T04:45:55;99326.00;;;15.75;55.35
10587;BME280;5341;47.606;7.576;2024-03-22T04:48:23;99335.94;;;15.74;55.33
10587;BME280;5341;47.606;7.576;2024-03-22T04:50:50;99326.19;;;15.73;55.43
10587;BME280;5341;47.606;7.576;2024-03-22T04:53:19;99339.88;;;15.72;55.51
10587;BME280;5341;47.606;7.576;2024-03-22T04:55:46;99333.66;;;15.71;55.43
10587;BME280;5341;47.606;7.576;2024-03-22T04:58:16;99331.16;;;15.70;55.42
10587;BME280;5341;47.606;7.576;2024-03-22T05:00:45;99335.72;;;15.69;55.50
10587;BME280;5341;47.606;7.576;2024-03-22T05:03:11;99326.78;;;15.69;55.30
10587;BME280;5341;47.606;7.576;2024-03-22T05:05:39;99327.84;;;15.68;55.17
10587;BME280;5341;47.606;7.576;2024-03-22T05:08:06;99327.00;;;15.67;55.46
10587;BME280;5341;47.606;7.576;2024-03-22T05:10:34;99320.97;;;15.65;55.52
10587;BME280;5341;47.606;7.576;2024-03-22T05:13:00;99327.41;;;15.64;55.29
10587;BME280;5341;47.606;7.576;2024-03-22T05:15:30;99323.88;;;15.64;55.22
10587;BME280;5341;47.606;7.576;2024-03-22T05:17:57;99333.84;;;15.63;55.44
10587;BME280;5341;47.606;7.576;2024-03-22T05:20:24;99323.22;;;15.62;55.49
10587;BME280;5341;47.606;7.576;2024-03-22T05:22:51;99325.91;;;15.62;55.36
10587;BME280;5341;47.606;7.576;2024-03-22T05:25:18;99324.25;;;15.61;55.43
10587;BME280;5341;47.606;7.576;2024-03-22T05:27:45;99321.72;;;15.59;55.43
10587;BME280;5341;47.606;7.576;2024-03-22T05:30:13;99324.44;;;15.59;55.78
10587;BME280;5341;47.606;7.576;2024-03-22T05:32:40;99325.28;;;15.60;55.80
10587;BME280;5341;47.606;7.576;2024-03-22T05:35:08;99328.00;;;15.60;55.78
10587;BME280;5341;47.606;7.576;2024-03-22T05:37:34;99321.72;;;15.59;55.63
10587;BME280;5341;47.606;7.576;2024-03-22T05:40:02;99319.25;;;15.58;55.69
10587;BME280;5341;47.606;7.576;2024-03-22T05:42:29;99319.25;;;15.58;55.50
10587;BME280;5341;47.606;7.576;2024-03-22T05:44:57;99316.56;;;15.58;55.58
10587;BME280;5341;47.606;7.576;2024-03-22T05:47:23;99313.84;;;15.58;55.75
10587;BME280;5341;47.606;7.576;2024-03-22T05:49:52;99313.03;;;15.57;55.71
10587;BME280;5341;47.606;7.576;2024-03-22T05:52:19;99311.16;;;15.58;55.65
10587;BME280;5341;47.606;7.576;2024-03-22T05:54:46;99308.47;;;15.58;55.59
10587;BME280;5341;47.606;7.576;2024-03-22T05:57:12;99309.50;;;15.57;55.73
10587;BME280;5341;47.606;7.576;2024-03-22T05:59:40;99299.34;;;15.59;55.61
10587;BME280;5341;47.606;7.576;2024-03-22T06:02:06;99300.38;;;15.58;55.65
10587;BME280;5341;47.606;7.576;2024-03-22T06:04:33;99296.84;;;15.57;55.72
10587;BME280;5341;47.606;7.576;2024-03-22T06:07:01;99299.53;;;15.57;55.65
10587;BME280;5341;47.606;7.576;2024-03-22T06:09:30;99299.34;;;15.59;56.03
10587;BME280;5341;47.606;7.576;2024-03-22T06:12:04;99294.97;;;15.58;55.91
10587;BME280;5341;47.606;7.576;2024-03-22T06:14:32;99299.16;;;15.60;55.76
10587;BME280;5341;47.606;7.576;2024-03-22T06:16:58;99301.84;;;15.60;56.16
10587;BME280;5341;47.606;7.576;2024-03-22T06:19:25;99299.78;;;15.62;56.03
10587;BME280;5341;47.606;7.576;2024-03-22T06:21:51;99296.25;;;15.62;55.82
10587;BME280;5341;47.606;7.576;2024-03-22T06:24:20;99289.00;;;15.62;56.06
10587;BME280;5341;47.606;7.576;2024-03-22T06:26:46;99288.00;;;15.63;55.78
10587;BME280;5341;47.606;7.576;2024-03-22T06:29:15;99284.47;;;15.63;55.78
10587;BME280;5341;47.606;7.576;2024-03-22T06:31:42;99295.06;;;15.64;55.95
10587;BME280;5341;47.606;7.576;2024-03-22T06:34:09;99285.94;;;15.65;55.90
10587;BME280;5341;47.606;7.576;2024-03-22T06:36:35;99284.88;;;15.66;56.11
10587;BME280;5341;47.606;7.576;2024-03-22T06:39:03;99291.94;;;15.67;56.02
10587;BME280;5341;47.606;7.576;2024-03-22T06:41:34;99290.91;;;15.68;55.83
10587;BME280;5341;47.606;7.576;2024-03-22T06:44:01;99289.03;;;15.69;56.05
10587;BME280;5341;47.606;7.576;2024-03-22T06:46:28;99295.06;;;15.71;55.93
10587;BME280;5341;47.606;7.576;2024-03-22T06:48:55;99288.63;;;15.72;55.92
10587;BME280;5341;47.606;7.576;2024-03-22T06:51:21;99297.56;;;15.72;56.14
10587;BME280;5341;47.606;7.576;2024-03-22T06:53:49;99299.22;;;15.73;56.01
10587;BME280;5341;47.606;7.576;2024-03-22T06:56:15;99298.19;;;15.74;56.14
10587;BME280;5341;47.606;7.576;2024-03-22T06:58:44;99302.56;;;15.75;55.86
10587;BME280;5341;47.606;7.576;2024-03-22T07:01:10;99298.84;;;15.76;55.87
10587;BME280;5341;47.606;7.576;2024-03-22T07:03:38;99292.41;;;15.77;55.80
10587;BME280;5341;47.606;7.576;2024-03-22T07:06:04;99299.44;;;15.78;56.14
10587;BME280;5341;47.606;7.576;2024-03-22T07:08:33;99296.13;;;15.76;56.06
10587;BME280;5341;47.606;7.576;2024-03-22T07:11:00;99296.97;;;15.77;55.69
10587;BME280;5341;47.606;7.576;2024-03-22T07:13:28;99296.97;;;15.77;55.74
10587;BME280;5341;47.606;7.576;2024-03-22T07:15:56;99292.41;;;15.77;55.65
10587;BME280;5341;47.606;7.576;2024-03-22T07:18:23;99293.44;;;15.76;55.76
10587;BME280;5341;47.606;7.576;2024-03-22T07:20:49;99299.66;;;15.77;55.61
10587;BME280;5341;47.606;7.576;2024-03-22T07:23:16;99294.28;;;15.77;55.64
10587;BME280;5341;47.606;7.576;2024-03-22T07:25:43;99295.31;;;15.76;55.59
10587;BME280;5341;47.606;7.576;2024-03-22T07:28:11;99290.94;;;15.75;55.65
10587;BME280;5341;47.606;7.576;2024-03-22T07:30:37;99300.03;;;15.74;55.48
10587;BME280;5341;47.606;7.576;2024-03-22T07:33:06;99300.03;;;15.74;55.95
10587;BME280;5341;47.606;7.576;2024-03-22T07:35:34;99298.38;;;15.73;55.56
10587;BME280;5341;47.606;7.576;2024-03-22T07:38:02;99293.00;;;15.73;55.87
10587;BME280;5341;47.606;7.576;2024-03-22T07:40:28;99291.31;;;15.72;55.70
10587;BME280;5341;47.606;7.576;2024-03-22T07:42:55;99302.94;;;15.72;55.87
10587;BME280;5341;47.606;7.576;2024-03-22T07:45:21;99299.22;;;15.73;55.96
10587;BME280;5341;47.606;7.576;2024-03-22T07:47:49;99294.66;;;15.74;55.93
10587;BME280;5341;47.606;7.576;2024-03-22T07:50:16;99298.00;;;15.76;56.08
10587;BME280;5341;47.606;7.576;2024-03-22T07:52:44;99290.53;;;15.78;55.84
10587;BME280;5341;47.606;7.576;2024-03-22T07:55:10;99292.81;;;15.81;56.25
10587;BME280;5341;47.606;7.576;2024-03-22T07:57:37;99289.72;;;15.84;56.10
10587;BME280;5341;47.606;7.576;2024-03-22T08:00:05;99290.16;;;15.88;55.82
10587;BME280;5341;47.606;7.576;2024-03-22T08:02:37;99296.78;;;15.92;55.92
10587;BME280;5341;47.606;7.576;2024-03-22T08:05:04;99283.94;;;15.94;55.62
10587;BME280;5341;47.606;7.576;2024-03-22T08:07:33;99287.88;;;15.98;55.54
10587;BME280;5341;47.606;7.576;2024-03-22T08:10:00;99279.41;;;16.01;55.59
10587;BME280;5341;47.606;7.576;2024-03-22T08:12:28;99286.88;;;16.05;55.70
10587;BME280;5341;47.606;7.576;2024-03-22T08:14:54;99281.06;;;16.08;55.55
10587;BME280;5341;47.606;7.576;2024-03-22T08:17:22;99292.69;;;16.16;55.79
10587;BME280;5341;47.606;7.576;2024-03-22T08:19:48;99289.38;;;16.20;55.52
10587;BME280;5341;47.606;7.576;2024-03-22T08:22:15;99290.44;;;16.26;55.56
10587;BME280;5341;47.606;7.576;2024-03-22T08:24:43;99284.19;;;16.32;55.50
10587;BME280;5341;47.606;7.576;2024-03-22T08:27:11;99281.50;;;16.38;55.50
10587;BME280;5341;47.606;7.576;2024-03-22T08:30:53;99274.88;;;16.48;55.50
10587;BME280;5341;47.606;7.576;2024-03-22T08:33:20;99270.28;;;16.55;55.51
10587;BME280;5341;47.606;7.576;2024-03-22T08:35:46;99271.13;;;16.62;55.43
10587;BME280;5341;47.606;7.576;2024-03-22T08:38:14;99269.47;;;16.67;55.28
10587;BME280;5341;47.606;7.576;2024-03-22T08:40:40;99264.72;;;16.76;55.35
10587;BME280;5341;47.606;7.576;2024-03-22T08:43:08;99261.97;;;16.83;54.96
10587;BME280;5341;47.606;7.576;2024-03-22T08:45:34;99258.22;;;16.90;54.77
10587;BME280;5341;47.606;7.576;2024-03-22T08:48:04;99265.50;;;16.96;54.82
10587;BME280;5341;47.606;7.576;2024-03-22T08:50:30;99261.94;;;17.03;54.50
10587;BME280;5341;47.606;7.576;2024-03-22T08:52:58;99254.66;;;17.10;54.73
10587;BME280;5341;47.606;7.576;2024-03-22T08:55:24;99250.88;;;17.17;54.59
10587;BME280;5341;47.606;7.576;2024-03-22T08:57:51;99249.00;;;17.24;54.63
10587;BME280;5341;47.606;7.576;2024-03-22T09:00:18;99246.91;;;17.33;54.33
10587;BME280;5341;47.606;7.576;2024-03-22T09:02:45;99237.91;;;17.39;53.99
10587;BME280;5341;47.606;7.576;2024-03-22T09:05:14;99232.28;;;17.47;54.12
10587;BME280;5341;47.606;7.576;2024-03-22T09:07:42;99232.00;;;17.55;53.64
10587;BME280;5341;47.606;7.576;2024-03-22T09:10:09;99233.66;;;17.63;53.92
10587;BME280;5341;47.606;7.576;2024-03-22T09:12:36;99232.38;;;17.72;53.90
10587;BME280;5341;47.606;7.576;2024-03-22T09:15:03;99237.53;;;17.80;53.97
10587;BME280;5341;47.606;7.576;2024-03-22T09:17:31;99230.81;;;17.90;53.72
10587;BME280;5341;47.606;7.576;2024-03-22T09:19:57;99224.53;;;17.96;53.27
10587;BME280;5341;47.606;7.576;2024-03-22T09:22:25;99223.44;;;18.03;53.07
10587;BME280;5341;47.606;7.576;2024-03-22T09:24:52;99225.88;;;18.11;52.95
10587;BME280;5341;47.606;7.576;2024-03-22T09:27:19;99217.50;;;18.20;52.97
10587;BME280;5341;47.606;7.576;2024-03-22T09:29:46;99207.22;;;18.28;53.08
10587;BME280;5341;47.606;7.576;2024-03-22T09:32:16;99214.22;;;18.36;52.96
10587;BME280;5341;47.606;7.576;2024-03-22T09:34:42;99202.06;;;18.45;53.20
10587;BME280;5341;47.606;7.576;2024-03-22T09:37:09;99196.75;;;18.57;53.15
10587;BME280;5341;47.606;7.576;2024-03-22T09:39:37;99193.56;;;18.66;53.20
10587;BME280;5341;47.606;7.576;2024-03-22T09:42:06;99193.88;;;18.77;52.95
10587;BME280;5341;47.606;7.576;2024-03-22T09:44:32;99193.34;;;18.86;52.91
10587;BME280;5341;47.606;7.576;2024-03-22T09:47:00;99193.44;;;18.98;52.93
10587;BME280;5341;47.606;7.576;2024-03-22T09:49:27;99198.94;;;19.10;52.80
10587;BME280;5341;47.606;7.576;2024-03-22T09:51:54;99187.56;;;19.19;52.66
10587;BME280;5341;47.606;7.576;2024-03-22T09:54:23;99187.25;;;19.27;51.69
10587;BME280;5341;47.606;7.576;2024-03-22T09:56:52;99188.44;;;19.31;51.51
10587;BME280;5341;47.606;7.576;2024-03-22T09:59:20;99188.56;;;19.37;51.16
10587;BME280;5341;47.606;7.576;2024-03-22T10:01:48;99188.50;;;19.43;51.35
10587;BME280;5341;47.606;7.576;2024-03-22T10:04:15;99181.94;;;19.51;51.15
10587;BME280;5341;47.606;7.576;2024-03-22T10:06:42;99182.09;;;19.56;51.25
10587;BME280;5341;47.606;7.576;2024-03-22T10:09:09;99182.22;;;19.61;51.05
10587;BME280;5341;47.606;7.576;2024-03-22T10:11:37;99171.53;;;19.66;50.68
10587;BME280;5341;47.606;7.576;2024-03-22T10:14:05;99177.44;;;19.75;50.76
10587;BME280;5341;47.606;7.576;2024-03-22T10:16:34;99174.63;;;19.81;50.56
10587;BME280;5341;47.606;7.576;2024-03-22T10:19:00;99167.22;;;19.88;51.05
10587;BME280;5341;47.606;7.576;2024-03-22T10:21:28;99167.94;;;19.96;51.61
10587;BME280;5341;47.606;7.576;2024-03-22T10:23:54;99158.88;;;20.02;50.28
10587;BME280;5341;47.606;7.576;2024-03-22T10:26:22;99154.13;;;20.09;50.84
10587;BME280;5341;47.606;7.576;2024-03-22T10:28:48;99152.97;;;20.16;51.12
10587;BME280;5341;47.606;7.576;2024-03-22T10:31:19;99146.97;;;20.26;50.86
10587;BME280;5341;47.606;7.576;2024-03-22T10:33:46;99141.16;;;20.34;50.78
10587;BME280;5341;47.606;7.576;2024-03-22T10:36:16;99136.25;;;20.43;50.35
10587;BME280;5341;47.606;7.576;2024-03-22T10:38:44;99134.59;;;20.54;50.37
10587;BME280;5341;47.606;7.576;2024-03-22T10:41:12;99129.13;;;20.65;50.10
10587;BME280;5341;47.606;7.576;2024-03-22T10:43:38;99132.31;;;20.74;50.30
10587;BME280;5341;47.606;7.576;2024-03-22T10:46:07;99127.31;;;20.83;49.75
10587;BME280;5341;47.606;7.576;2024-03-22T10:48:36;99127.53;;;20.93;48.48
10587;BME280;5341;47.606;7.576;2024-03-22T10:51:06;99112.50;;;21.02;48.95
10587;BME280;5341;47.606;7.576;2024-03-22T10:53:33;99121.13;;;21.11;48.25
10587;BME280;5341;47.606;7.576;2024-03-22T10:56:02;99108.53;;;21.21;46.54
10587;BME280;5341;47.606;7.576;2024-03-22T10:58:30;99105.44;;;21.29;45.67
10587;BME280;5341;47.606;7.576;2024-03-22T11:00:58;99091.72;;;21.36;45.52
10587;BME280;5341;47.606;7.576;2024-03-22T11:03:26;99091.91;;;21.46;44.85
10587;BME280;5341;47.606;7.576;2024-03-22T11:05:56;99093.47;;;21.59;44.66
10587;BME280;5341;47.606;7.576;2024-03-22T11:08:24;99084.16;;;21.72;44.31
10587;BME280;5341;47.606;7.576;2024-03-22T11:10:52;99079.47;;;21.84;43.04
10587;BME280;5341;47.606;7.576;2024-03-22T11:13:21;99082.00;;;21.90;43.12
10587;BME280;5341;47.606;7.576;2024-03-22T11:15:49;99081.88;;;21.97;42.70
10587;BME280;5341;47.606;7.576;2024-03-22T11:18:15;99066.66;;;22.01;43.42
10587;BME280;5341;47.606;7.576;2024-03-22T11:20:43;99059.88;;;22.04;43.54
10587;BME280;5341;47.606;7.576;2024-03-22T11:23:13;99060.25;;;22.07;42.18
10587;BME280;5341;47.606;7.576;2024-03-22T11:25:41;99054.00;;;22.07;41.45
10587;BME280;5341;47.606;7.576;2024-03-22T11:28:08;99047.22;;;22.09;41.74
10587;BME280;5341;47.606;7.576;2024-03-22T11:30:36;99033.66;;;22.14;41.09
10587;BME280;5341;47.606;7.576;2024-03-22T11:33:03;99031.34;;;22.23;41.05
10587;BME280;5341;47.606;7.576;2024-03-22T11:35:31;99021.91;;;22.31;41.03
10587;BME280;5341;47.606;7.576;2024-03-22T11:38:00;99019.81;;;22.38;41.90
10587;BME280;5341;47.606;7.576;2024-03-22T11:40:32;99015.31;;;22.48;41.38
10587;BME280;5341;47.606;7.576;2024-03-22T11:43:00;99009.19;;;22.58;40.79
10587;BME280;5341;47.606;7.576;2024-03-22T11:45:29;99012.84;;;22.69;40.04
10587;BME280;5341;47.606;7.576;2024-03-22T11:48:01;99015.19;;;22.82;39.19
10587;BME280;5341;47.606;7.576;2024-03-22T11:50:28;99001.94;;;22.91;38.58
10587;BME280;5341;47.606;7.576;2024-03-22T11:52:56;99009.66;;;22.99;38.28
10587;BME280;5341;47.606;7.576;2024-03-22T11:55:26;98999.41;;;23.11;38.55
10587;BME280;5341;47.606;7.576;2024-03-22T11:57:57;98996.22;;;23.19;38.97
10587;BME280;5341;47.606;7.576;2024-03-22T12:00:25;98985.09;;;23.26;38.92
10587;BME280;5341;47.606;7.576;2024-03-22T12:02:53;98985.72;;;23.33;38.54
10587;BME280;5341;47.606;7.576;2024-03-22T12:05:21;98983.88;;;23.38;37.61
10587;BME280;5341;47.606;7.576;2024-03-22T12:07:47;98976.00;;;23.47;36.47
10587;BME280;5341;47.606;7.576;2024-03-22T12:10:15;98977.13;;;23.51;36.99
10587;BME280;5341;47.606;7.576;2024-03-22T12:12:41;98976.59;;;23.54;36.98
10587;BME280;5341;47.606;7.576;2024-03-22T12:15:11;98974.44;;;23.56;36.46
10587;BME280;5341;47.606;7.576;2024-03-22T12:17:37;98966.56;;;23.60;36.15
10587;BME280;5341;47.606;7.576;2024-03-22T12:20:07;98959.53;;;23.64;36.35
10587;BME280;5341;47.606;7.576;2024-03-22T12:22:34;98953.53;;;23.67;35.53
10587;BME280;5341;47.606;7.576;2024-03-22T12:25:01;98951.91;;;23.71;35.33
10587;BME280;5341;47.606;7.576;2024-03-22T12:27:27;98942.13;;;23.75;34.76
10587;BME280;5341;47.606;7.576;2024-03-22T12:29:55;98940.75;;;23.78;34.37
10587;BME280;5341;47.606;7.576;2024-03-22T12:32:22;98941.88;;;23.82;35.10
10587;BME280;5341;47.606;7.576;2024-03-22T12:34:50;98929.59;;;23.84;35.01
10587;BME280;5341;47.606;7.576;2024-03-22T12:37:16;98922.53;;;23.88;34.70
10587;BME280;5341;47.606;7.576;2024-03-22T12:39:44;98917.88;;;23.89;35.20
10587;BME280;5341;47.606;7.576;2024-03-22T12:42:10;98909.97;;;23.92;35.59
10587;BME280;5341;47.606;7.576;2024-03-22T12:44:38;98906.44;;;23.97;35.62
10587;BME280;5341;47.606;7.576;2024-03-22T12:47:05;98908.38;;;24.02;35.41
10587;BME280;5341;47.606;7.576;2024-03-22T12:49:34;98904.88;;;24.11;35.14
10587;BME280;5341;47.606;7.576;2024-03-22T12:52:01;98905.44;;;24.18;34.59
10587;BME280;5341;47.606;7.576;2024-03-22T12:54:29;98897.03;;;24.30;34.29
10587;BME280;5341;47.606;7.576;2024-03-22T12:56:56;98884.22;;;24.41;34.44
10587;BME280;5341;47.606;7.576;2024-03-22T12:59:23;98874.13;;;24.46;34.12
10587;BME280;5341;47.606;7.576;2024-03-22T13:01:51;98871.41;;;24.51;33.70
10587;BME280;5341;47.606;7.576;2024-03-22T13:04:20;98865.66;;;24.58;32.86
10587;BME280;5341;47.606;7.576;2024-03-22T13:06:47;98862.69;;;24.65;32.45
10587;BME280;5341;47.606;7.576;2024-03-22T13:09:16;98857.19;;;24.70;32.19
10587;BME280;5341;47.606;7.576;2024-03-22T13:11:45;98854.78;;;24.73;32.31